Time;durP1;ratioP1;P1;durP2;ratioP2;P2;SDS_P1;SDS_P2;PMS_P1;PMS_P2;Temp;Humidity;BMP_temperature;BMP_pressure;BME280_temperature;BME280_humidity;BME280_pressure;Samples;Min_cycle;Max_cycle;Signal;HPM_P1;HPM_P2
2023/03/27 00:02:00;;;;;;;30.23;4.47;;;;;;;;;;5062336;28;20051;-70
2023/03/27 00:04:25;;;;;;;23.05;2.50;;;;;;;;;;5070853;28;20025;-70
2023/03/27 00:06:50;;;;;;;15.23;2.77;;;;;;;;;;5060565;28;20025;-70
2023/03/27 00:09:16;;;;;;;21.23;2.83;;;;;;;;;;5067684;28;20759;-70
2023/03/27 00:11:41;;;;;;;22.35;2.92;;;;;;;;;;5066233;28;20034;-70
2023/03/27 00:14:06;;;;;;;13.55;1.70;;;;;;;;;;5069944;28;20155;-71
2023/03/27 00:16:32;;;;;;;17.42;2.17;;;;;;;;;;5066044;28;20009;-70
2023/03/27 00:18:57;;;;;;;11.15;1.70;;;;;;;;;;5068541;28;20020;-70
2023/03/27 00:21:22;;;;;;;26.45;2.72;;;;;;;;;;5062900;28;20663;-70
2023/03/27 00:23:48;;;;;;;20.77;1.95;;;;;;;;;;5066098;28;20017;-70
2023/03/27 00:26:14;;;;;;;22.08;1.70;;;;;;;;;;5062485;28;20028;-71
2023/03/27 00:28:39;;;;;;;31.33;3.25;;;;;;;;;;5064785;28;20409;-70
2023/03/27 00:31:08;;;;;;;19.23;2.75;;;;;;;;;;5064257;28;20017;-70
2023/03/27 00:33:33;;;;;;;13.15;2.13;;;;;;;;;;5063791;28;20044;-71
2023/03/27 00:35:58;;;;;;;19.10;2.73;;;;;;;;;;5066755;28;20091;-70
2023/03/27 00:38:23;;;;;;;21.03;2.07;;;;;;;;;;5062019;28;20648;-70
2023/03/27 00:40:54;;;;;;;21.77;2.67;;;;;;;;;;5065162;28;20260;-70
2023/03/27 00:43:19;;;;;;;;;;;;;;;;;;5067850;28;20289;-70
2023/03/27 00:45:45;;;;;;;21.15;2.35;;;;;;;;;;5064966;28;19912;-70
2023/03/27 00:48:11;;;;;;;22.30;2.08;;;;;;;;;;5057777;28;20016;-70
2023/03/27 00:50:38;;;;;;;18.40;4.05;;;;;;;;;;5064002;28;20103;-71
2023/03/27 00:53:05;;;;;;;29.50;3.75;;;;;;;;;;5063928;28;20016;-70
2023/03/27 00:55:32;;;;;;;13.85;2.15;;;;;;;;;;5064011;28;20020;-70
2023/03/27 00:58:00;;;;;;;21.92;3.70;;;;;;;;;;5065762;28;20374;-70
2023/03/27 01:00:26;;;;;;;22.20;2.72;;;;;;;;;;5064060;28;20024;-70
2023/03/27 01:02:53;;;;;;;15.82;2.10;;;;;;;;;;5068395;28;20046;-70
2023/03/27 01:05:19;;;;;;;13.05;2.38;;;;;;;;;;5064554;28;20020;-70
2023/03/27 01:07:45;;;;;;;14.25;3.08;;;;;;;;;;5066190;28;20027;-70
2023/03/27 01:10:10;;;;;;;23.73;2.08;;;;;;;;;;5066419;28;20651;-72
2023/03/27 01:12:54;;;;;;;19.58;2.65;;;;;;;;;;5068189;28;20028;-72
2023/03/27 01:15:19;;;;;;;16.70;2.17;;;;;;;;;;5058785;28;20509;-72
2023/03/27 01:17:47;;;;;;;17.95;3.20;;;;;;;;;;5059857;28;20052;-72
2023/03/27 01:20:26;;;;;;;15.52;3.45;;;;;;;;;;5056425;28;20021;-72
2023/03/27 01:22:54;;;;;;;17.50;2.40;;;;;;;;;;5065620;28;20070;-72
2023/03/27 01:25:19;;;;;;;19.92;3.30;;;;;;;;;;5062901;28;20674;-72
2023/03/27 01:27:57;;;;;;;18.67;3.05;;;;;;;;;;5064822;28;20027;-72
2023/03/27 01:30:28;;;;;;;15.52;2.35;;;;;;;;;;5056514;28;20349;-72
2023/03/27 01:33:00;;;;;;;15.13;2.40;;;;;;;;;;5067631;28;20059;-72
2023/03/27 01:35:35;;;;;;;25.10;4.00;;;;;;;;;;5063257;28;20040;-72
2023/03/27 01:38:11;;;;;;;18.08;2.92;;;;;;;;;;5061438;28;20103;-72
2023/03/27 01:40:42;;;;;;;24.20;3.28;;;;;;;;;;5062606;28;20413;-72
2023/03/27 01:43:12;;;;;;;22.80;2.85;;;;;;;;;;5063142;28;20082;-72
2023/03/27 01:45:37;;;;;;;30.17;3.55;;;;;;;;;;5061080;28;20070;-72
2023/03/27 01:48:05;;;;;;;14.63;3.22;;;;;;;;;;5062330;28;20928;-72
2023/03/27 01:50:34;;;;;;;24.98;2.85;;;;;;;;;;5068562;28;20823;-72
2023/03/27 01:53:18;;;;;;;26.20;3.00;;;;;;;;;;5065141;28;20017;-72
2023/03/27 01:55:45;;;;;;;26.58;4.88;;;;;;;;;;5060200;28;20025;-72
2023/03/27 01:58:13;;;;;;;30.10;3.40;;;;;;;;;;5062781;28;20494;-72
2023/03/27 02:00:41;;;;;;;27.33;3.60;;;;;;;;;;5061504;28;20367;-72
2023/03/27 02:03:08;;;;;;;13.75;3.30;;;;;;;;;;5068864;28;20028;-72
2023/03/27 02:05:45;;;;;;;20.65;2.97;;;;;;;;;;5070116;28;20060;-72
2023/03/27 02:08:14;;;;;;;21.55;2.92;;;;;;;;;;5065786;28;20507;-72
2023/03/27 02:10:41;;;;;;;21.02;2.75;;;;;;;;;;5068003;28;20017;-72
2023/03/27 02:13:09;;;;;;;18.13;2.67;;;;;;;;;;5069028;28;20054;-72
2023/03/27 02:15:36;;;;;;;17.35;2.50;;;;;;;;;;5066836;28;20043;-72
2023/03/27 02:18:08;;;;;;;17.23;2.95;;;;;;;;;;5069610;28;20397;-72
2023/03/27 02:20:34;;;;;;;18.13;3.78;;;;;;;;;;5071026;28;20020;-72
2023/03/27 02:23:00;;;;;;;15.65;2.20;;;;;;;;;;5061411;28;20032;-72
2023/03/27 02:25:32;;;;;;;23.67;3.40;;;;;;;;;;5066381;28;20021;-72
2023/03/27 02:28:04;;;;;;;12.95;2.47;;;;;;;;;;5061856;28;20025;-72
2023/03/27 02:30:34;;;;;;;18.70;2.95;;;;;;;;;;5069307;28;20374;-72
2023/03/27 02:33:13;;;;;;;10.60;2.38;;;;;;;;;;5056899;28;20090;-72
2023/03/27 02:35:55;;;;;;;23.48;2.97;;;;;;;;;;5070548;28;20037;-72
2023/03/27 02:38:23;;;;;;;25.48;2.28;;;;;;;;;;5061510;28;20028;-72
2023/03/27 02:41:04;;;;;;;23.38;3.55;;;;;;;;;;5069938;28;20107;-72
2023/03/27 02:43:29;;;;;;;13.15;2.05;;;;;;;;;;5064424;28;20024;-72
2023/03/27 02:46:01;;;;;;;9.50;2.50;;;;;;;;;;5066013;28;20081;-72
2023/03/27 02:54:39;;;;;;;20.35;2.65;;;;;;;;;;5059376;28;20450;-72
2023/03/27 02:57:07;;;;;;;13.25;2.50;;;;;;;;;;5060259;28;20485;-72
2023/03/27 02:59:39;;;;;;;9.85;2.42;;;;;;;;;;5066210;28;20466;-72
2023/03/27 03:02:08;;;;;;;18.13;2.85;;;;;;;;;;5070913;28;20070;-72
2023/03/27 03:04:55;;;;;;;20.83;2.72;;;;;;;;;;5063817;28;20031;-72
2023/03/27 03:07:21;;;;;;;14.95;3.55;;;;;;;;;;5070750;28;20024;-72
2023/03/27 03:09:47;;;;;;;18.23;2.88;;;;;;;;;;5065630;28;20379;-72
2023/03/27 03:12:12;;;;;;;16.05;2.22;;;;;;;;;;5063057;28;20291;-72
2023/03/27 03:14:38;;;;;;;20.27;3.27;;;;;;;;;;5068125;28;20059;-72
2023/03/27 03:17:04;;;;;;;22.20;3.33;;;;;;;;;;5065871;28;20279;-72
2023/03/27 03:19:29;;;;;;;19.10;2.30;;;;;;;;;;5067240;28;20020;-72
2023/03/27 03:21:55;;;;;;;18.73;3.17;;;;;;;;;;5059871;28;20033;-72
2023/03/27 03:24:21;;;;;;;18.67;2.65;;;;;;;;;;5060448;28;20103;-72
2023/03/27 03:26:48;;;;;;;19.38;2.50;;;;;;;;;;5064771;28;20020;-72
2023/03/27 03:29:14;;;;;;;21.40;4.55;;;;;;;;;;5068726;28;20074;-72
2023/03/27 03:31:42;;;;;;;14.55;2.85;;;;;;;;;;5071300;28;20600;-72
2023/03/27 03:34:11;;;;;;;10.98;2.22;;;;;;;;;;5061869;28;20426;-72
2023/03/27 03:36:36;;;;;;;11.80;2.53;;;;;;;;;;5065335;28;20032;-72
2023/03/27 03:39:02;;;;;;;17.27;2.55;;;;;;;;;;5069602;28;20013;-72
2023/03/27 03:41:27;;;;;;;14.15;2.70;;;;;;;;;;5069637;28;20023;-72
2023/03/27 03:43:52;;;;;;;21.52;3.28;;;;;;;;;;5058702;28;20044;-72
2023/03/27 03:46:17;;;;;;;15.02;2.75;;;;;;;;;;5062226;28;20830;-72
2023/03/27 03:48:42;;;;;;;23.77;3.40;;;;;;;;;;5054358;28;20279;-72
2023/03/27 03:51:08;;;;;;;9.05;3.70;;;;;;;;;;5066928;28;20286;-72
2023/03/27 03:53:33;;;;;;;15.43;2.92;;;;;;;;;;5059826;28;20602;-72
2023/03/27 03:55:58;;;;;;;17.77;2.87;;;;;;;;;;5067179;28;20313;-72
2023/03/27 03:58:23;;;;;;;15.18;3.22;;;;;;;;;;5061125;28;20279;-72
2023/03/27 04:00:48;;;;;;;11.88;2.42;;;;;;;;;;5059524;28;20683;-72
2023/03/27 04:03:14;;;;;;;12.52;2.85;;;;;;;;;;5064691;28;20477;-72
2023/03/27 04:05:39;;;;;;;27.65;3.42;;;;;;;;;;5069411;28;20046;-72
2023/03/27 04:08:08;;;;;;;24.90;3.42;;;;;;;;;;5066833;28;20017;-73
2023/03/27 04:10:35;;;;;;;18.35;3.17;;;;;;;;;;5070343;28;20055;-72
2023/03/27 04:13:00;;;;;;;10.38;2.35;;;;;;;;;;5061053;28;20385;-73
2023/03/27 04:15:26;;;;;;;33.90;2.90;;;;;;;;;;5069393;28;20024;-72
2023/03/27 04:17:51;;;;;;;20.42;2.65;;;;;;;;;;5057587;28;20044;-72
2023/03/27 04:20:16;;;;;;;22.65;2.72;;;;;;;;;;5071169;28;20021;-72
2023/03/27 04:22:46;;;;;;;15.65;2.80;;;;;;;;;;5063901;28;20098;-72
2023/03/27 04:25:12;;;;;;;20.67;3.03;;;;;;;;;;5064104;28;20167;-72
2023/03/27 04:27:38;;;;;;;14.55;2.50;;;;;;;;;;5063476;28;20017;-72
2023/03/27 04:30:03;;;;;;;19.20;3.22;;;;;;;;;;5068571;28;20027;-72
2023/03/27 04:32:29;;;;;;;16.70;2.70;;;;;;;;;;5067350;28;20052;-72
2023/03/27 04:34:54;;;;;;;17.65;2.78;;;;;;;;;;5065976;28;20060;-72
2023/03/27 04:37:19;;;;;;;20.50;3.47;;;;;;;;;;5066907;28;20020;-72
2023/03/27 04:39:45;;;;;;;27.88;3.13;;;;;;;;;;5065425;28;20384;-72
2023/03/27 04:42:11;;;;;;;22.05;4.38;;;;;;;;;;5065582;28;20024;-72
2023/03/27 04:44:36;;;;;;;20.15;2.90;;;;;;;;;;5066874;28;20361;-72
2023/03/27 04:47:02;;;;;;;20.67;3.33;;;;;;;;;;5060168;28;20024;-72
2023/03/27 04:49:28;;;;;;;19.35;3.33;;;;;;;;;;5063194;28;20527;-72
2023/03/27 04:51:53;;;;;;;14.00;2.90;;;;;;;;;;5064912;28;20406;-72
2023/03/27 04:54:18;;;;;;;16.05;4.32;;;;;;;;;;5062446;28;20032;-72
2023/03/27 04:56:44;;;;;;;16.08;3.00;;;;;;;;;;5066024;28;20054;-72
2023/03/27 04:59:09;;;;;;;22.25;2.75;;;;;;;;;;5064941;28;20017;-72
2023/03/27 05:01:35;;;;;;;21.17;2.92;;;;;;;;;;5061647;28;20039;-72
2023/03/27 05:04:01;;;;;;;10.60;2.30;;;;;;;;;;5060946;28;20055;-72
2023/03/27 05:06:26;;;;;;;16.50;3.42;;;;;;;;;;5061240;28;20516;-72
2023/03/27 05:08:51;;;;;;;19.13;4.03;;;;;;;;;;5064942;28;20037;-72
2023/03/27 05:11:16;;;;;;;20.35;3.03;;;;;;;;;;5059988;28;20017;-72
2023/03/27 05:13:41;;;;;;;17.67;2.55;;;;;;;;;;5053926;28;20091;-72
2023/03/27 05:16:08;;;;;;;11.87;2.57;;;;;;;;;;5056944;28;20032;-72
2023/03/27 05:18:34;;;;;;;10.55;2.83;;;;;;;;;;5063933;28;20278;-72
2023/03/27 05:20:59;;;;;;;28.80;4.38;;;;;;;;;;5059790;28;20077;-72
2023/03/27 05:23:25;;;;;;;13.35;2.92;;;;;;;;;;5064715;28;20103;-72
2023/03/27 05:25:50;;;;;;;21.88;3.72;;;;;;;;;;5064856;28;20032;-72
2023/03/27 05:28:15;;;;;;;13.02;3.70;;;;;;;;;;5057170;28;20163;-72
2023/03/27 05:30:43;;;;;;;22.85;3.05;;;;;;;;;;5055627;28;20040;-72
2023/03/27 05:33:12;;;;;;;13.10;3.25;;;;;;;;;;5051986;28;20079;-72
2023/03/27 05:35:40;;;;;;;15.17;3.37;;;;;;;;;;5062763;28;20032;-72
2023/03/27 05:38:07;;;;;;;19.80;3.28;;;;;;;;;;5059208;28;20040;-72
2023/03/27 05:40:33;;;;;;;18.05;4.13;;;;;;;;;;5054075;28;20108;-72
2023/03/27 05:42:59;;;;;;;20.75;4.05;;;;;;;;;;5052590;28;20025;-72
2023/03/27 05:45:24;;;;;;;17.40;3.50;;;;;;;;;;5056772;28;20039;-72
2023/03/27 05:47:54;;;;;;;14.48;2.97;;;;;;;;;;5056323;28;20024;-72
2023/03/27 05:50:20;;;;;;;14.68;3.03;;;;;;;;;;5059325;28;20040;-72
2023/03/27 05:52:45;;;;;;;16.75;5.63;;;;;;;;;;5055971;28;20028;-72
2023/03/27 05:55:11;;;;;;;36.80;3.40;;;;;;;;;;5050749;28;20043;-72
2023/03/27 05:57:38;;;;;;;15.82;3.30;;;;;;;;;;5059503;28;20474;-72
2023/03/27 06:00:09;;;;;;;12.88;3.95;;;;;;;;;;5064253;28;20024;-72
2023/03/27 06:02:34;;;;;;;15.73;3.13;;;;;;;;;;5056800;28;20028;-72
2023/03/27 06:05:00;;;;;;;12.15;3.70;;;;;;;;;;5052606;28;20025;-72
2023/03/27 06:07:26;;;;;;;12.55;3.55;;;;;;;;;;5058909;28;20198;-72
2023/03/27 06:09:51;;;;;;;22.27;3.50;;;;;;;;;;5057288;28;20100;-72
2023/03/27 06:12:17;;;;;;;22.30;4.82;;;;;;;;;;5062921;28;20096;-72
2023/03/27 06:14:42;;;;;;;21.65;3.85;;;;;;;;;;5054737;28;20029;-72
2023/03/27 06:17:08;;;;;;;26.07;3.83;;;;;;;;;;5055834;28;20016;-72
2023/03/27 06:19:33;;;;;;;21.77;5.55;;;;;;;;;;5066554;28;20274;-72
2023/03/27 06:21:58;;;;;;;24.63;3.30;;;;;;;;;;5065801;28;20085;-72
2023/03/27 06:24:23;;;;;;;16.20;3.40;;;;;;;;;;5058921;28;20263;-72
2023/03/27 06:26:49;;;;;;;20.40;4.53;;;;;;;;;;5061298;28;20283;-72
2023/03/27 06:29:14;;;;;;;21.92;4.07;;;;;;;;;;5060627;28;20255;-72
2023/03/27 06:31:39;;;;;;;15.53;3.83;;;;;;;;;;5068216;28;20040;-72
2023/03/27 06:34:04;;;;;;;28.15;4.72;;;;;;;;;;5060323;28;20279;-72
2023/03/27 06:36:31;;;;;;;23.00;4.17;;;;;;;;;;5058217;28;20237;-72
2023/03/27 06:38:56;;;;;;;17.55;3.95;;;;;;;;;;5052853;28;20362;-72
2023/03/27 06:41:22;;;;;;;19.25;3.28;;;;;;;;;;5060226;28;20095;-72
2023/03/27 06:43:47;;;;;;;21.15;3.58;;;;;;;;;;5057710;28;20464;-72
2023/03/27 06:46:12;;;;;;;20.60;4.47;;;;;;;;;;5059218;28;20085;-72
2023/03/27 06:48:38;;;;;;;18.13;4.20;;;;;;;;;;5063147;28;20282;-72
2023/03/27 06:51:03;;;;;;;19.30;3.28;;;;;;;;;;5056724;28;20035;-72
2023/03/27 06:53:28;;;;;;;15.05;3.47;;;;;;;;;;5063195;28;20445;-72
2023/03/27 06:55:54;;;;;;;20.00;4.43;;;;;;;;;;5058683;28;20040;-72
2023/03/27 06:58:20;;;;;;;16.17;3.65;;;;;;;;;;5065207;28;20099;-72
2023/03/27 07:00:45;;;;;;;20.45;4.03;;;;;;;;;;5062563;28;20406;-72
2023/03/27 07:03:11;;;;;;;19.85;4.35;;;;;;;;;;5060888;28;20024;-72
2023/03/27 07:05:37;;;;;;;15.27;3.03;;;;;;;;;;5061640;28;20132;-72
2023/03/27 07:08:03;;;;;;;12.65;3.10;;;;;;;;;;5065944;28;20431;-72
2023/03/27 07:10:28;;;;;;;22.73;4.15;;;;;;;;;;5061643;28;20016;-72
2023/03/27 07:12:53;;;;;;;19.95;3.33;;;;;;;;;;5059064;28;20151;-72
2023/03/27 07:15:19;;;;;;;19.77;3.40;;;;;;;;;;5064490;28;20107;-72
2023/03/27 07:17:51;;;;;;;12.02;3.17;;;;;;;;;;5062548;28;20414;-72
2023/03/27 07:20:17;;;;;;;16.55;3.75;;;;;;;;;;5060414;28;20040;-71
2023/03/27 07:22:42;;;;;;;14.27;2.85;;;;;;;;;;5064415;28;20393;-72
2023/03/27 07:25:08;;;;;;;14.38;2.80;;;;;;;;;;5057177;28;20632;-72
2023/03/27 07:27:33;;;;;;;16.05;3.10;;;;;;;;;;5066002;28;20496;-70
2023/03/27 07:30:00;;;;;;;18.87;3.10;;;;;;;;;;5057644;28;20063;-72
2023/03/27 07:32:25;;;;;;;13.50;2.15;;;;;;;;;;5061754;28;20391;-72
2023/03/27 07:34:50;;;;;;;8.73;3.27;;;;;;;;;;5061814;28;20109;-71
2023/03/27 07:37:15;;;;;;;12.25;2.42;;;;;;;;;;5060528;28;20267;-72
2023/03/27 07:39:41;;;;;;;15.40;2.20;;;;;;;;;;5062016;28;20037;-72
2023/03/27 07:42:07;;;;;;;8.00;2.00;;;;;;;;;;5064093;28;20035;-72
2023/03/27 07:44:32;;;;;;;9.88;2.63;;;;;;;;;;5065145;28;20267;-72
2023/03/27 07:46:57;;;;;;;12.53;3.40;;;;;;;;;;5064372;28;20043;-71
2023/03/27 07:49:23;;;;;;;10.55;2.40;;;;;;;;;;5061125;28;20287;-72
2023/03/27 07:51:48;;;;;;;14.37;3.17;;;;;;;;;;5060000;28;20473;-72
2023/03/27 07:54:14;;;;;;;17.30;3.17;;;;;;;;;;5058187;28;20361;-72
2023/03/27 07:56:39;;;;;;;12.85;2.05;;;;;;;;;;5055740;28;20028;-70
2023/03/27 07:59:05;;;;;;;8.00;2.05;;;;;;;;;;5064349;28;20029;-70
2023/03/27 08:01:31;;;;;;;10.52;1.80;;;;;;;;;;5061400;28;20105;-70
2023/03/27 08:03:56;;;;;;;12.93;2.20;;;;;;;;;;5062833;28;20047;-70
2023/03/27 08:06:21;;;;;;;7.65;1.75;;;;;;;;;;5062167;28;20428;-70
2023/03/27 08:08:47;;;;;;;8.38;1.52;;;;;;;;;;5055188;28;20087;-70
2023/03/27 08:11:12;;;;;;;9.50;2.87;;;;;;;;;;5061837;28;20024;-70
2023/03/27 08:13:38;;;;;;;13.35;2.13;;;;;;;;;;5057657;28;20028;-71
2023/03/27 08:16:16;;;;;;;7.95;1.85;;;;;;;;;;5066401;28;20124;-70
2023/03/27 08:18:42;;;;;;;10.18;2.45;;;;;;;;;;5058124;28;20082;-72
2023/03/27 08:21:08;;;;;;;12.32;3.03;;;;;;;;;;5063020;28;20009;-72
2023/03/27 08:23:34;;;;;;;11.32;1.65;;;;;;;;;;5060216;28;20048;-72
2023/03/27 08:25:59;;;;;;;16.65;2.63;;;;;;;;;;5060246;28;20028;-72
2023/03/27 08:28:28;;;;;;;5.68;1.70;;;;;;;;;;5059446;28;20377;-72
2023/03/27 08:30:54;;;;;;;6.53;1.58;;;;;;;;;;5063078;28;20021;-72
2023/03/27 08:33:19;;;;;;;6.03;2.25;;;;;;;;;;5061010;28;20028;-72
2023/03/27 08:35:48;;;;;;;8.90;1.50;;;;;;;;;;5059560;28;20033;-72
2023/03/27 08:38:14;;;;;;;5.13;1.52;;;;;;;;;;5060031;28;20100;-72
2023/03/27 08:40:40;;;;;;;14.23;2.45;;;;;;;;;;5058201;28;20104;-72
2023/03/27 08:43:10;;;;;;;15.52;2.10;;;;;;;;;;5060299;28;20070;-72
2023/03/27 08:45:40;;;;;;;13.07;2.53;;;;;;;;;;5059512;28;20146;-72
2023/03/27 08:48:09;;;;;;;11.65;1.63;;;;;;;;;;5058351;28;20017;-72
2023/03/27 08:50:40;;;;;;;9.93;1.83;;;;;;;;;;5061216;28;20012;-72
2023/03/27 08:53:10;;;;;;;20.80;2.38;;;;;;;;;;5060808;28;20020;-72
2023/03/27 08:55:43;;;;;;;8.95;1.70;;;;;;;;;;5052697;28;20504;-72
2023/03/27 08:58:14;;;;;;;7.55;1.20;;;;;;;;;;5061264;28;20024;-72
2023/03/27 09:00:40;;;;;;;5.43;1.35;;;;;;;;;;5059042;28;20035;-72
2023/03/27 09:03:12;;;;;;;7.78;1.33;;;;;;;;;;5061750;28;20016;-72
2023/03/27 09:05:46;;;;;;;8.57;1.67;;;;;;;;;;5058330;28;20082;-72
2023/03/27 09:08:30;;;;;;;10.45;1.77;;;;;;;;;;5056350;28;20075;-71
2023/03/27 09:10:59;;;;;;;4.80;1.17;;;;;;;;;;5060098;28;20095;-70
2023/03/27 09:13:24;;;;;;;15.20;1.50;;;;;;;;;;5062352;28;20024;-70
2023/03/27 09:16:21;;;;;;;9.18;2.08;;;;;;;;;;5058663;28;20429;-71
2023/03/27 09:18:52;;;;;;;9.32;1.77;;;;;;;;;;5048062;28;20064;-71
2023/03/27 09:21:26;;;;;;;6.35;1.42;;;;;;;;;;5059051;28;20028;-71
2023/03/27 09:23:54;;;;;;;9.57;1.60;;;;;;;;;;5055394;28;20078;-71
2023/03/27 09:26:20;;;;;;;14.48;1.50;;;;;;;;;;5061041;28;20048;-71
2023/03/27 09:28:58;;;;;;;5.70;2.00;;;;;;;;;;5060010;28;20028;-71
2023/03/27 09:31:27;;;;;;;12.27;1.33;;;;;;;;;;5054208;28;20579;-71
2023/03/27 09:33:53;;;;;;;9.68;1.63;;;;;;;;;;5063358;28;20028;-71
2023/03/27 09:36:18;;;;;;;7.20;1.10;;;;;;;;;;5059261;28;20013;-71
2023/03/27 09:38:49;;;;;;;11.70;1.85;;;;;;;;;;5067475;28;20034;-71
2023/03/27 09:41:17;;;;;;;11.32;1.58;;;;;;;;;;5054296;28;20021;-71
2023/03/27 09:44:15;;;;;;;13.98;1.50;;;;;;;;;;5057911;28;20028;-71
2023/03/27 09:46:44;;;;;;;15.40;2.30;;;;;;;;;;5044474;28;20047;-71
2023/03/27 09:49:10;;;;;;;12.63;1.60;;;;;;;;;;5063347;28;20028;-71
2023/03/27 09:51:37;;;;;;;9.30;1.30;;;;;;;;;;5063355;28;20037;-71
2023/03/27 09:54:03;;;;;;;10.27;1.73;;;;;;;;;;5066380;28;20050;-71
2023/03/27 09:56:28;;;;;;;9.65;1.88;;;;;;;;;;5062882;28;20034;-71
2023/03/27 09:58:56;;;;;;;9.40;2.70;;;;;;;;;;5060048;28;20062;-71
2023/03/27 10:01:29;;;;;;;7.53;2.08;;;;;;;;;;5052738;28;20017;-71
2023/03/27 10:03:55;;;;;;;18.00;2.78;;;;;;;;;;5062224;28;20066;-71
2023/03/27 10:06:25;;;;;;;5.53;1.70;;;;;;;;;;5061502;28;20060;-71
2023/03/27 10:08:50;;;;;;;7.80;2.00;;;;;;;;;;5057629;28;20021;-71
2023/03/27 10:11:19;;;;;;;11.20;2.33;;;;;;;;;;5059312;28;20048;-71
2023/03/27 10:13:46;;;;;;;14.70;2.20;;;;;;;;;;5063902;28;20016;-71
2023/03/27 10:16:16;;;;;;;5.05;1.90;;;;;;;;;;5055969;28;20017;-71
2023/03/27 10:18:42;;;;;;;4.57;2.25;;;;;;;;;;5063386;28;20028;-71
2023/03/27 10:21:09;;;;;;;8.73;1.90;;;;;;;;;;5060181;28;20047;-71
2023/03/27 10:23:48;;;;;;;13.25;2.00;;;;;;;;;;5067689;28;20474;-71
2023/03/27 10:26:18;;;;;;;7.18;1.70;;;;;;;;;;5060084;28;20624;-71
2023/03/27 10:28:48;;;;;;;10.85;2.03;;;;;;;;;;5061925;28;20031;-71
2023/03/27 10:31:14;;;;;;;;;;;;;;;;;;5067170;28;20091;-71
2023/03/27 10:33:40;;;;;;;4.30;1.55;;;;;;;;;;5057679;28;20015;-71
2023/03/27 10:36:06;;;;;;;9.13;1.45;;;;;;;;;;5060984;28;20413;-71
2023/03/27 10:38:32;;;;;;;5.63;1.60;;;;;;;;;;5060132;28;20031;-71
2023/03/27 10:40:57;;;;;;;9.93;2.45;;;;;;;;;;5061740;28;20099;-71
2023/03/27 10:43:26;;;;;;;9.35;2.00;;;;;;;;;;5063146;28;20049;-71
2023/03/27 10:45:57;;;;;;;15.65;1.88;;;;;;;;;;5065778;28;20032;-71
2023/03/27 10:48:40;;;;;;;3.10;1.30;;;;;;;;;;5063284;28;20016;-71
2023/03/27 10:51:13;;;;;;;7.97;1.75;;;;;;;;;;5067289;28;20013;-71
2023/03/27 10:53:41;;;;;;;8.20;1.75;;;;;;;;;;5066401;28;20023;-71
2023/03/27 10:56:14;;;;;;;10.00;1.85;;;;;;;;;;5052216;28;20032;-72
2023/03/27 10:58:49;;;;;;;11.38;2.45;;;;;;;;;;5065240;28;20044;-72
2023/03/27 11:01:23;;;;;;;5.75;2.05;;;;;;;;;;5061630;28;20103;-71
2023/03/27 11:03:51;;;;;;;8.65;2.40;;;;;;;;;;5062254;28;20021;-71
2023/03/27 11:06:19;;;;;;;11.20;2.20;;;;;;;;;;5059861;28;20032;-71
2023/03/27 11:09:04;;;;;;;7.45;2.35;;;;;;;;;;5061615;28;20023;-71
2023/03/27 11:11:34;;;;;;;8.30;1.92;;;;;;;;;;5059170;28;20211;-72
2023/03/27 11:14:02;;;;;;;9.50;1.38;;;;;;;;;;5067493;28;20381;-72
2023/03/27 11:16:35;;;;;;;9.95;1.73;;;;;;;;;;5058117;28;20029;-72
2023/03/27 11:19:00;;;;;;;7.50;1.45;;;;;;;;;;5067952;28;20611;-71
2023/03/27 11:21:30;;;;;;;5.25;1.00;;;;;;;;;;5063613;28;20029;-71
2023/03/27 11:23:57;;;;;;;18.63;2.20;;;;;;;;;;5063608;28;20029;-71
2023/03/27 11:26:28;;;;;;;10.45;1.67;;;;;;;;;;5063479;28;20020;-71
2023/03/27 11:29:01;;;;;;;11.75;2.40;;;;;;;;;;5060927;28;20056;-71
2023/03/27 11:31:44;;;;;;;5.30;1.10;;;;;;;;;;5064557;28;20023;-72
2023/03/27 11:34:25;;;;;;;9.90;1.50;;;;;;;;;;5061688;28;20028;-71
2023/03/27 11:37:04;;;;;;;3.65;1.40;;;;;;;;;;5066212;28;20342;-71
2023/03/27 11:39:29;;;;;;;6.80;3.00;;;;;;;;;;5063272;28;20024;-71
2023/03/27 11:41:57;;;;;;;7.22;1.73;;;;;;;;;;5066917;28;20540;-71
2023/03/27 11:44:23;;;;;;;4.90;1.20;;;;;;;;;;5063418;28;20016;-71
2023/03/27 11:47:04;;;;;;;11.68;1.95;;;;;;;;;;5061586;28;20024;-71
2023/03/27 11:49:42;;;;;;;5.75;1.33;;;;;;;;;;5061738;28;20218;-71
2023/03/27 11:52:30;;;;;;;4.32;1.58;;;;;;;;;;5065673;28;20023;-71
2023/03/27 11:55:05;;;;;;;14.10;1.73;;;;;;;;;;5060275;28;20040;-71
2023/03/27 11:57:31;;;;;;;6.57;1.65;;;;;;;;;;5063479;28;20025;-70
2023/03/27 12:00:15;;;;;;;10.00;1.80;;;;;;;;;;5062456;28;20031;-71
2023/03/27 12:02:40;;;;;;;10.70;1.35;;;;;;;;;;5067266;28;20027;-71
2023/03/27 12:05:24;;;;;;;8.10;2.03;;;;;;;;;;5064521;28;20024;-71
2023/03/27 12:08:23;;;;;;;9.23;1.70;;;;;;;;;;5063097;28;20762;-71
2023/03/27 12:10:50;;;;;;;5.72;1.58;;;;;;;;;;5043367;28;20035;-73
2023/03/27 12:13:26;;;;;;;9.13;1.50;;;;;;;;;;5064862;28;20043;-71
2023/03/27 12:15:51;;;;;;;4.43;1.25;;;;;;;;;;5065074;28;20078;-71
2023/03/27 12:18:19;;;;;;;10.27;1.73;;;;;;;;;;5062079;28;20025;-71
2023/03/27 12:20:47;;;;;;;6.95;1.90;;;;;;;;;;5061874;28;20733;-71
2023/03/27 12:23:22;;;;;;;6.03;1.30;;;;;;;;;;5059789;28;20032;-71
2023/03/27 12:25:56;;;;;;;11.98;1.45;;;;;;;;;;5063247;28;20051;-71
2023/03/27 12:28:44;;;;;;;6.45;1.30;;;;;;;;;;5063987;28;20392;-71
2023/03/27 12:31:28;;;;;;;5.88;0.85;;;;;;;;;;5052212;28;20028;-71
2023/03/27 12:33:59;;;;;;;2.55;0.75;;;;;;;;;;5054141;28;20027;-71
2023/03/27 12:36:29;;;;;;;4.55;1.15;;;;;;;;;;5057141;28;20477;-71
2023/03/27 12:38:56;;;;;;;8.57;0.85;;;;;;;;;;5058976;28;20496;-71
2023/03/27 12:41:21;;;;;;;3.75;1.27;;;;;;;;;;5062666;28;20029;-78
2023/03/27 12:43:47;;;;;;;5.47;1.65;;;;;;;;;;5059150;28;20116;-70
2023/03/27 12:46:15;;;;;;;6.93;1.13;;;;;;;;;;5066944;28;20067;-71
2023/03/27 12:48:55;;;;;;;7.88;1.00;;;;;;;;;;5064510;28;20476;-71
2023/03/27 12:51:40;;;;;;;6.68;2.00;;;;;;;;;;5062764;28;20031;-70
2023/03/27 12:54:13;;;;;;;4.88;1.00;;;;;;;;;;5055163;28;20021;-71
2023/03/27 12:56:38;;;;;;;6.65;0.82;;;;;;;;;;5055954;28;20028;-70
2023/03/27 12:59:17;;;;;;;6.32;0.77;;;;;;;;;;5062198;28;20086;-71
2023/03/27 13:01:42;;;;;;;4.22;0.80;;;;;;;;;;5064431;28;20025;-71
2023/03/27 13:04:26;;;;;;;2.72;0.88;;;;;;;;;;5058039;28;20611;-71
2023/03/27 13:06:57;;;;;;;13.15;2.80;;;;;;;;;;5062125;28;20388;-71
2023/03/27 13:09:28;;;;;;;4.15;1.23;;;;;;;;;;5056679;28;20111;-71
2023/03/27 13:11:59;;;;;;;6.18;0.90;;;;;;;;;;5055778;28;20504;-71
2023/03/27 13:14:24;;;;;;;3.63;0.50;;;;;;;;;;5060876;28;20021;-71
2023/03/27 13:16:50;;;;;;;1.70;0.50;;;;;;;;;;5055286;28;20519;-71
2023/03/27 13:19:21;;;;;;;1.83;0.80;;;;;;;;;;5049735;28;20020;-70
2023/03/27 13:21:58;;;;;;;1.52;0.60;;;;;;;;;;5063649;28;20829;-70
2023/03/27 13:24:34;;;;;;;4.20;0.30;;;;;;;;;;5062408;28;20020;-71
2023/03/27 13:26:59;;;;;;;1.65;0.60;;;;;;;;;;5055701;28;20113;-70
2023/03/27 13:29:29;;;;;;;4.72;0.73;;;;;;;;;;5062787;28;20091;-71
2023/03/27 13:31:56;;;;;;;3.15;0.52;;;;;;;;;;5064259;28;20267;-71
2023/03/27 13:34:33;;;;;;;7.07;0.90;;;;;;;;;;5064161;28;20081;-71
2023/03/27 13:37:04;;;;;;;4.25;1.17;;;;;;;;;;5057531;28;20024;-71
2023/03/27 13:39:49;;;;;;;3.47;0.93;;;;;;;;;;5056669;28;20017;-71
2023/03/27 13:42:21;;;;;;;6.50;1.10;;;;;;;;;;5051225;28;20115;-71
2023/03/27 13:44:52;;;;;;;6.95;1.10;;;;;;;;;;5055483;28;20489;-71
2023/03/27 13:47:27;;;;;;;6.60;0.95;;;;;;;;;;5056486;28;20021;-71
2023/03/27 13:50:04;;;;;;;4.10;1.00;;;;;;;;;;5061352;28;20064;-71
2023/03/27 13:52:59;;;;;;;2.05;0.73;;;;;;;;;;5059623;28;20418;-71
2023/03/27 13:55:26;;;;;;;6.25;1.00;;;;;;;;;;5057895;28;20393;-71
2023/03/27 13:58:01;;;;;;;2.58;1.25;;;;;;;;;;5064679;28;20025;-71
2023/03/27 14:00:46;;;;;;;6.13;1.30;;;;;;;;;;5055369;28;20029;-71
2023/03/27 14:03:23;;;;;;;5.65;1.75;;;;;;;;;;5060758;28;20063;-71
2023/03/27 14:06:03;;;;;;;3.33;1.38;;;;;;;;;;5060740;28;20107;-71
2023/03/27 14:08:40;;;;;;;6.22;1.50;;;;;;;;;;5059681;28;20415;-71
2023/03/27 14:11:05;;;;;;;5.35;1.50;;;;;;;;;;5059255;28;21823;-71
2023/03/27 14:14:03;;;;;;;9.35;1.75;;;;;;;;;;5063483;28;20028;-71
2023/03/27 14:16:49;;;;;;;6.50;1.42;;;;;;;;;;5038663;28;20029;-71
2023/03/27 14:19:29;;;;;;;8.32;1.50;;;;;;;;;;5062269;28;20013;-71
2023/03/27 14:21:58;;;;;;;4.32;1.60;;;;;;;;;;5054497;28;20393;-71
2023/03/27 14:24:27;;;;;;;6.30;1.00;;;;;;;;;;5054195;28;20020;-71
2023/03/27 14:26:53;;;;;;;3.35;1.10;;;;;;;;;;5058548;28;20118;-71
2023/03/27 14:29:20;;;;;;;4.38;0.95;;;;;;;;;;5063293;28;20074;-71
2023/03/27 14:31:45;;;;;;;7.35;1.20;;;;;;;;;;5053339;28;20457;-71
2023/03/27 14:34:23;;;;;;;2.88;1.15;;;;;;;;;;5058728;28;20048;-71
2023/03/27 14:36:50;;;;;;;2.97;1.00;;;;;;;;;;5068766;28;20033;-71
2023/03/27 14:39:23;;;;;;;6.45;1.77;;;;;;;;;;5065188;28;20020;-71
2023/03/27 14:41:53;;;;;;;4.35;1.33;;;;;;;;;;5057603;28;20051;-71
2023/03/27 14:44:18;;;;;;;5.68;1.10;;;;;;;;;;5057184;28;20027;-71
2023/03/27 14:46:47;;;;;;;6.07;1.40;;;;;;;;;;5059039;28;20490;-71
2023/03/27 14:49:14;;;;;;;7.80;1.67;;;;;;;;;;5063520;28;20029;-71
2023/03/27 14:51:46;;;;;;;2.97;0.98;;;;;;;;;;5059632;28;20039;-71
2023/03/27 14:54:15;;;;;;;8.88;1.15;;;;;;;;;;5066668;28;20020;-71